Time;durP1;ratioP1;P1;durP2;ratioP2;P2;SDS_P1;SDS_P2;PMS_P1;PMS_P2;Temp;Humidity;BMP_temperature;BMP_pressure;BME280_temperature;BME280_humidity;BME280_pressure;Samples;Min_cycle;Max_cycle;Signal;HPM_P1;HPM_P2
2022/10/20 00:01:57;;;;;;;8.87;3.70;;;7.30;99.90;;;;;;4997360;28;20231;-78
2022/10/20 00:04:23;;;;;;;7.33;3.47;;;7.30;99.90;;;;;;4996472;28;20180;-78
2022/10/20 00:06:48;;;;;;;7.30;3.90;;;7.40;99.90;;;;;;5014796;28;20177;-78
2022/10/20 00:09:14;;;;;;;10.30;3.80;;;7.40;99.90;;;;;;4997043;28;20256;-77
2022/10/20 00:11:39;;;;;;;10.47;4.00;;;7.30;99.90;;;;;;5014471;28;20690;-77
2022/10/20 00:14:05;;;;;;;10.53;4.23;;;7.40;99.90;;;;;;4996016;28;20196;-77
2022/10/20 00:16:34;;;;;;;7.93;4.10;;;7.30;99.90;;;;;;4996901;28;20166;-78
2022/10/20 00:19:00;;;;;;;9.07;3.97;;;7.30;99.90;;;;;;5014472;28;20165;-80
2022/10/20 00:21:27;;;;;;;7.17;4.03;;;7.30;99.90;;;;;;4996730;28;20234;-77
2022/10/20 00:23:52;;;;;;;7.30;4.30;;;7.30;99.90;;;;;;5014555;28;20181;-77
2022/10/20 00:26:24;;;;;;;16.67;4.60;;;7.20;99.90;;;;;;5014526;28;20187;-77
2022/10/20 00:28:50;;;;;;;9.10;3.90;;;7.30;99.90;;;;;;4997621;28;20196;-77
2022/10/20 00:31:18;;;;;;;9.30;4.37;;;7.30;99.90;;;;;;4997280;28;20203;-77
2022/10/20 00:33:44;;;;;;;12.60;4.30;;;7.20;99.90;;;;;;4995913;28;20227;-77
2022/10/20 00:36:14;;;;;;;6.60;4.20;;;7.20;99.90;;;;;;5014547;28;20691;-77
2022/10/20 00:38:40;;;;;;;10.63;4.20;;;7.20;99.90;;;;;;4997218;28;20187;-77
2022/10/20 00:41:06;;;;;;;7.00;3.67;;;7.20;99.90;;;;;;4996945;28;20189;-78
2022/10/20 00:43:54;;;;;;;8.70;3.53;;;7.20;99.90;;;;;;5013703;28;20176;-78
2022/10/20 00:46:23;;;;;;;14.70;3.83;;;7.20;99.90;;;;;;4996784;28;20730;-77
2022/10/20 00:48:53;;;;;;;4.60;3.90;;;7.20;99.90;;;;;;4997064;28;20176;-77
2022/10/20 00:51:23;;;;;;;7.60;4.13;;;7.20;99.90;;;;;;5014605;28;20272;-77
2022/10/20 00:53:52;;;;;;;7.20;4.00;;;7.20;99.90;;;;;;4995949;28;20216;-77
2022/10/20 00:56:17;;;;;;;5.20;4.27;;;7.10;99.90;;;;;;5014454;28;20543;-77
2022/10/20 00:58:43;;;;;;;7.57;4.20;;;7.20;99.90;;;;;;5014631;28;20180;-77
2022/10/20 01:01:10;;;;;;;11.87;4.57;;;7.20;99.90;;;;;;4996403;28;20671;-77
2022/10/20 01:03:44;;;;;;;14.30;4.10;;;7.10;99.90;;;;;;4995716;28;20173;-78
2022/10/20 01:06:11;;;;;;;8.77;4.90;;;7.10;99.90;;;;;;4996102;28;20634;-77
2022/10/20 01:08:37;;;;;;;5.50;4.50;;;7.20;99.90;;;;;;5014196;28;20180;-77
2022/10/20 01:11:23;;;;;;;8.80;4.17;;;7.10;99.90;;;;;;4996440;28;20716;-77
2022/10/20 01:14:14;;;;;;;6.57;4.57;;;7.10;99.90;;;;;;5013422;28;20193;-77
2022/10/20 01:16:43;;;;;;;7.43;4.60;;;7.10;99.90;;;;;;5014141;28;20193;-77
2022/10/20 01:19:17;;;;;;;9.97;4.43;;;7.10;99.90;;;;;;5013994;28;20542;-77
2022/10/20 01:22:01;;;;;;;7.70;4.20;;;7.10;99.90;;;;;;5013989;28;20232;-77
2022/10/20 01:24:45;;;;;;;4.93;4.07;;;7.10;99.90;;;;;;4995742;28;20180;-77
2022/10/20 01:27:23;;;;;;;12.20;5.10;;;7.00;99.90;;;;;;5012449;28;20181;-77
2022/10/20 01:30:08;;;;;;;7.60;4.33;;;7.10;99.90;;;;;;5012056;28;20200;-77
2022/10/20 01:32:58;;;;;;;5.17;4.50;;;7.00;99.90;;;;;;5014002;28;20173;-77
2022/10/20 01:35:39;;;;;;;8.50;5.00;;;7.00;99.90;;;;;;5012616;28;20212;-77
2022/10/20 01:38:15;;;;;;;8.57;4.50;;;7.10;99.90;;;;;;5014037;28;20166;-77
2022/10/20 01:41:08;;;;;;;8.87;4.67;;;7.00;99.90;;;;;;5013909;28;20199;-77
2022/10/20 01:43:37;;;;;;;13.43;4.37;;;7.00;99.90;;;;;;4995406;28;20201;-78
2022/10/20 01:46:04;;;;;;;12.07;4.87;;;7.00;99.90;;;;;;4996082;28;20173;-77
2022/10/20 01:48:34;;;;;;;11.37;5.07;;;7.00;99.90;;;;;;4996202;28;20279;-77
2022/10/20 01:51:01;;;;;;;7.70;5.27;;;7.10;99.90;;;;;;5013503;28;20196;-77
2022/10/20 01:53:27;;;;;;;8.63;5.20;;;7.10;99.90;;;;;;5012655;28;20215;-78
2022/10/20 01:55:55;;;;;;;9.67;4.93;;;7.10;99.90;;;;;;5013465;28;20228;-77
2022/10/20 01:58:41;;;;;;;10.73;4.90;;;7.10;99.90;;;;;;5013497;28;20180;-77
2022/10/20 02:01:18;;;;;;;8.43;4.60;;;7.00;99.90;;;;;;4995912;28;20238;-77
2022/10/20 02:03:56;;;;;;;10.20;4.40;;;7.00;99.90;;;;;;4995276;28;20195;-77
2022/10/20 02:06:41;;;;;;;7.33;4.40;;;7.00;99.90;;;;;;4996167;28;20180;-77
2022/10/20 02:09:22;;;;;;;10.13;5.00;;;7.00;99.90;;;;;;5013803;28;20240;-77
2022/10/20 02:11:58;;;;;;;11.67;4.77;;;6.90;99.90;;;;;;4996008;28;20228;-77
2022/10/20 02:14:24;;;;;;;11.80;4.60;;;7.00;99.90;;;;;;5012942;28;20196;-77
2022/10/20 02:16:56;;;;;;;9.23;4.50;;;7.00;99.90;;;;;;4995999;28;20227;-77
2022/10/20 02:19:25;;;;;;;15.07;4.70;;;7.00;99.90;;;;;;4997855;28;20180;-77
2022/10/20 02:21:52;;;;;;;6.30;4.67;;;7.00;99.90;;;;;;5017499;28;20236;-77
2022/10/20 02:24:22;;;;;;;12.97;5.20;;;7.00;99.90;;;;;;5016193;28;20188;-77
2022/10/20 02:26:50;;;;;;;8.13;4.27;;;7.00;99.90;;;;;;4999657;28;20694;-77
2022/10/20 02:29:21;;;;;;;6.30;4.30;;;7.00;99.90;;;;;;5017023;28;20175;-77
2022/10/20 02:31:47;;;;;;;14.50;4.33;;;7.00;99.90;;;;;;4999338;28;20208;-77
2022/10/20 02:34:13;;;;;;;9.87;4.47;;;7.00;99.90;;;;;;5015924;28;20578;-77
2022/10/20 02:36:41;;;;;;;9.63;5.07;;;7.00;99.90;;;;;;4988467;28;20548;-77
2022/10/20 02:39:08;;;;;;;5.43;4.00;;;6.90;99.90;;;;;;4997430;28;20183;-78
2022/10/20 02:41:34;;;;;;;8.40;4.90;;;6.90;99.90;;;;;;4979402;28;20211;-77
2022/10/20 02:44:00;;;;;;;6.90;4.87;;;6.90;99.90;;;;;;4983931;28;20190;-77
2022/10/20 02:46:26;;;;;;;11.87;4.90;;;7.00;99.90;;;;;;4999090;28;20189;-77
2022/10/20 02:48:51;;;;;;;6.97;4.80;;;7.00;99.90;;;;;;5016582;28;20181;-77
2022/10/20 02:51:17;;;;;;;9.93;4.60;;;7.00;99.90;;;;;;5016403;28;20197;-77
2022/10/20 02:53:43;;;;;;;13.40;4.90;;;6.90;99.90;;;;;;4997833;28;20204;-77
2022/10/20 02:56:09;;;;;;;10.07;5.37;;;7.00;99.90;;;;;;4998842;28;20666;-77
2022/10/20 02:58:34;;;;;;;10.53;4.80;;;6.90;99.90;;;;;;5016423;28;20169;-77
2022/10/20 03:01:00;;;;;;;6.60;4.67;;;6.90;99.90;;;;;;5016368;28;20201;-76
2022/10/20 03:03:26;;;;;;;10.07;4.93;;;6.90;99.90;;;;;;5016371;28;20686;-77
2022/10/20 03:05:51;;;;;;;8.90;4.97;;;6.90;99.90;;;;;;4994578;28;20185;-79
2022/10/20 03:08:17;;;;;;;12.93;5.43;;;6.90;99.90;;;;;;4996876;28;20184;-77
2022/10/20 03:10:42;;;;;;;9.33;5.57;;;6.90;99.90;;;;;;5012245;23;20594;-94
2022/10/20 03:13:09;;;;;;;9.27;4.90;;;6.80;99.90;;;;;;5005324;28;20704;-93
2022/10/20 03:15:35;;;;;;;10.90;5.37;;;6.90;99.90;;;;;;5005051;28;20213;-94
2022/10/20 03:18:00;;;;;;;8.80;5.20;;;6.90;99.90;;;;;;5004883;28;20231;-94
2022/10/20 03:20:26;;;;;;;14.30;5.10;;;6.90;99.90;;;;;;5005437;28;20219;-94
2022/10/20 03:22:51;;;;;;;7.70;4.77;;;6.90;99.90;;;;;;5005444;28;20569;-94
2022/10/20 03:25:17;;;;;;;6.07;4.17;;;6.90;99.90;;;;;;5005398;28;20180;-94
2022/10/20 03:27:43;;;;;;;9.87;5.50;;;7.20;99.90;;;;;;5005408;28;20189;-93
2022/10/20 03:30:09;;;;;;;7.83;5.10;;;7.00;99.90;;;;;;5005366;28;20177;-93
2022/10/20 03:32:34;;;;;;;7.33;4.97;;;7.00;99.90;;;;;;5005253;28;20196;-93
2022/10/20 03:35:00;;;;;;;10.43;4.97;;;7.00;99.90;;;;;;5004421;28;20211;-93
2022/10/20 03:37:25;;;;;;;6.00;5.40;;;7.00;99.90;;;;;;5004194;28;20185;-93
2022/10/20 03:39:51;;;;;;;10.70;5.03;;;7.00;99.90;;;;;;5004474;28;20177;-93
2022/10/20 03:42:16;;;;;;;6.67;5.03;;;7.00;99.90;;;;;;5004938;28;20577;-93
2022/10/20 03:44:43;;;;;;;11.27;5.60;;;6.90;99.90;;;;;;5005158;28;20263;-94
2022/10/20 03:47:10;;;;;;;13.00;5.40;;;7.00;99.90;;;;;;5004015;28;20181;-93
2022/10/20 03:49:36;;;;;;;9.40;5.17;;;7.50;99.90;;;;;;5005430;28;20185;-94
2022/10/20 03:52:02;;;;;;;14.93;5.57;;;7.10;99.90;;;;;;5007132;28;20207;-94
2022/10/20 03:54:28;;;;;;;12.47;5.83;;;7.10;99.90;;;;;;5014582;28;20208;-94
2022/10/20 03:56:54;;;;;;;12.17;5.63;;;7.30;99.90;;;;;;5013602;28;20183;-94
2022/10/20 03:59:19;;;;;;;11.93;5.90;;;7.10;99.90;;;;;;5011435;28;20200;-94
2022/10/20 04:01:46;;;;;;;8.73;4.83;;;7.20;99.90;;;;;;5008305;28;20191;-93
2022/10/20 04:04:11;;;;;;;16.30;5.77;;;7.20;99.90;;;;;;5004917;28;20177;-94
2022/10/20 04:06:37;;;;;;;10.33;5.13;;;7.20;99.90;;;;;;5021193;28;20177;-94
2022/10/20 04:09:03;;;;;;;7.53;5.53;;;7.20;99.90;;;;;;5020884;28;20646;-93
2022/10/20 04:11:30;;;;;;;7.90;5.60;;;7.20;99.90;;;;;;5004164;28;20244;-93
2022/10/20 04:13:55;;;;;;;7.60;5.30;;;7.20;99.90;;;;;;5026243;28;20197;-94
2022/10/20 04:16:21;;;;;;;9.60;6.27;;;7.30;99.90;;;;;;5005813;28;20176;-93
2022/10/20 04:18:47;;;;;;;8.43;5.57;;;7.30;99.90;;;;;;5005188;28;20619;-94
2022/10/20 04:21:13;;;;;;;8.80;5.20;;;7.40;99.90;;;;;;5003820;28;20204;-93
2022/10/20 04:23:38;;;;;;;9.97;6.27;;;7.30;99.90;;;;;;5004360;28;20239;-94
2022/10/20 04:26:09;;;;;;;8.60;5.40;;;7.70;99.90;;;;;;5005327;28;20192;-93
2022/10/20 04:28:36;;;;;;;7.77;5.40;;;7.40;99.90;;;;;;5020821;28;20177;-93
2022/10/20 04:31:01;;;;;;;9.13;6.20;;;7.40;99.90;;;;;;5003761;28;20173;-93
2022/10/20 04:33:27;;;;;;;12.00;5.60;;;7.50;99.90;;;;;;5005563;28;20197;-93
2022/10/20 04:36:04;;;;;;;10.43;5.73;;;7.50;99.90;;;;;;5005992;28;20240;-94
2022/10/20 04:38:31;;;;;;;10.90;5.83;;;7.50;99.90;;;;;;5005361;28;20248;-94
2022/10/20 04:40:59;;;;;;;11.97;6.03;;;7.50;99.90;;;;;;5004254;28;20188;-93
2022/10/20 04:43:25;;;;;;;8.90;5.83;;;8.10;99.90;;;;;;5004036;28;20206;-94
2022/10/20 04:45:53;;;;;;;14.60;7.03;;;7.60;99.90;;;;;;5015237;28;20172;-94
2022/10/20 04:48:19;;;;;;;10.73;6.60;;;7.80;99.90;;;;;;5013427;28;20181;-94
2022/10/20 04:50:44;;;;;;;15.53;6.73;;;7.70;99.90;;;;;;5013288;28;20208;-94
2022/10/20 04:53:10;;;;;;;8.17;6.63;;;7.90;99.90;;;;;;5012570;28;20268;-93
2022/10/20 04:55:36;;;;;;;9.77;6.50;;;8.00;99.90;;;;;;5009786;28;20224;-94
2022/10/20 04:58:02;;;;;;;21.00;7.97;;;8.20;99.90;;;;;;5023797;28;20223;-93
2022/10/20 05:00:27;;;;;;;15.17;8.37;;;8.30;99.90;;;;;;5007181;28;20297;-94
2022/10/20 05:02:54;;;;;;;13.97;6.90;;;8.50;99.90;;;;;;5008029;28;20205;-94
2022/10/20 05:05:19;;;;;;;10.40;7.53;;;8.60;99.90;;;;;;5004026;28;20185;-93
2022/10/20 05:07:45;;;;;;;15.83;8.17;;;8.70;99.90;;;;;;5006585;28;20176;-94
2022/10/20 05:10:10;;;;;;;11.53;7.40;;;8.70;99.90;;;;;;5009205;28;20272;-93
2022/10/20 05:12:36;;;;;;;12.57;8.40;;;8.70;99.90;;;;;;5017569;28;20358;-93
2022/10/20 05:15:04;;;;;;;13.93;8.37;;;9.10;99.90;;;;;;5022391;28;20201;-94
2022/10/20 05:17:30;;;;;;;13.80;7.60;;;9.00;99.90;;;;;;5013700;28;20173;-94
2022/10/20 05:19:55;;;;;;;15.37;7.73;;;9.00;99.90;;;;;;5013526;28;20176;-94
2022/10/20 05:22:21;;;;;;;11.77;8.83;;;9.20;99.90;;;;;;5037746;28;20184;-95
2022/10/20 05:24:47;;;;;;;16.00;8.17;;;9.20;99.90;;;;;;5014241;28;20240;-93
2022/10/20 05:27:12;;;;;;;16.97;7.37;;;9.30;99.90;;;;;;5016620;28;20658;-93
2022/10/20 05:29:49;;;;;;;21.03;8.43;;;9.50;99.90;;;;;;5015666;28;20161;-93
2022/10/20 05:32:14;;;;;;;19.63;8.37;;;9.50;99.90;;;;;;5039140;28;20209;-94
2022/10/20 05:34:40;;;;;;;15.13;8.13;;;9.40;99.90;;;;;;5038987;28;20212;-93
2022/10/20 05:37:35;;;;;;;;;;;;;;;;;;;;;
2022/10/20 05:40:02;;;;;;;11.97;7.83;;;9.50;99.90;;;;;;5042419;22;20315;-78
2022/10/20 05:42:27;;;;;;;12.87;8.47;;;9.60;99.90;;;;;;5036143;28;20188;-79
2022/10/20 05:44:53;;;;;;;13.17;8.07;;;9.60;99.90;;;;;;5033440;28;20188;-79
2022/10/20 05:47:19;;;;;;;14.23;8.17;;;9.70;99.90;;;;;;5036083;28;20225;-79
2022/10/20 05:49:44;;;;;;;12.60;8.10;;;9.70;99.90;;;;;;5035944;28;20188;-79
2022/10/20 05:52:09;;;;;;;17.63;7.80;;;9.70;99.90;;;;;;5018308;28;20200;-79
2022/10/20 05:54:35;;;;;;;13.10;8.13;;;9.80;99.90;;;;;;5036638;28;20751;-77
2022/10/20 05:57:00;;;;;;;13.30;8.10;;;9.80;99.90;;;;;;5038032;28;20251;-78
2022/10/20 05:59:26;;;;;;;13.60;7.80;;;9.90;99.90;;;;;;5038458;28;20176;-78
2022/10/20 06:01:51;;;;;;;12.20;8.13;;;9.90;99.90;;;;;;5019749;28;20218;-77
2022/10/20 06:04:22;;;;;;;15.80;7.93;;;9.90;99.90;;;;;;5039915;28;20543;-78
2022/10/20 06:06:48;;;;;;;14.53;7.40;;;9.90;99.90;;;;;;5040024;28;20157;-79
2022/10/20 06:09:14;;;;;;;13.53;7.30;;;10.00;99.90;;;;;;5021950;28;20270;-79
2022/10/20 06:11:40;;;;;;;13.67;7.50;;;10.00;99.90;;;;;;5021863;28;20203;-79
2022/10/20 06:14:07;;;;;;;9.57;6.73;;;10.10;99.90;;;;;;5021288;28;20196;-80
2022/10/20 06:16:33;;;;;;;10.07;6.50;;;10.10;99.90;;;;;;5021584;28;20183;-79
2022/10/20 06:18:59;;;;;;;17.57;6.90;;;10.20;99.90;;;;;;5021912;28;20176;-79
2022/10/20 06:21:28;;;;;;;9.80;6.70;;;10.20;99.90;;;;;;5039034;28;20165;-79
2022/10/20 06:23:54;;;;;;;8.97;6.00;;;10.20;99.90;;;;;;5021491;28;20176;-79
2022/10/20 06:26:22;;;;;;;10.37;6.33;;;10.20;99.90;;;;;;5038706;28;20542;-80
2022/10/20 06:28:51;;;;;;;10.30;5.50;;;10.30;99.90;;;;;;5022072;28;20214;-79
2022/10/20 06:31:21;;;;;;;8.87;5.80;;;10.40;99.90;;;;;;5040407;28;20642;-79
2022/10/20 06:33:47;;;;;;;8.43;6.00;;;10.40;99.90;;;;;;5022738;28;20246;-79
2022/10/20 06:36:14;;;;;;;7.63;5.70;;;10.50;99.90;;;;;;5040155;28;20168;-79
2022/10/20 06:38:40;;;;;;;12.40;5.37;;;10.50;99.90;;;;;;5021801;28;20176;-79
2022/10/20 06:41:10;;;;;;;14.73;5.97;;;10.50;99.90;;;;;;5022280;28;20175;-79
2022/10/20 06:43:35;;;;;;;9.07;5.83;;;10.60;99.90;;;;;;5022922;28;20180;-79
2022/10/20 06:46:06;;;;;;;8.17;5.63;;;10.60;99.90;;;;;;5040672;28;20170;-79
2022/10/20 06:48:34;;;;;;;8.00;5.43;;;10.70;99.90;;;;;;5042080;28;20160;-80
2022/10/20 06:51:22;;;;;;;10.93;5.80;;;10.70;99.90;;;;;;5042155;28;20169;-80
2022/10/20 06:53:49;;;;;;;9.83;5.80;;;10.80;99.90;;;;;;5042526;28;20180;-80
2022/10/20 06:56:23;;;;;;;8.87;5.50;;;10.80;99.90;;;;;;5043109;28;20172;-80
2022/10/20 06:58:51;;;;;;;8.30;5.70;;;10.90;99.90;;;;;;5026436;28;20168;-80
2022/10/20 07:01:22;;;;;;;6.33;4.63;;;11.00;99.90;;;;;;5031288;28;20179;-81
2022/10/20 07:03:49;;;;;;;13.33;6.27;;;11.00;99.90;;;;;;5049138;28;20222;-80
2022/10/20 07:06:17;;;;;;;9.87;5.90;;;11.00;99.90;;;;;;5036190;28;20246;-81
2022/10/20 07:08:43;;;;;;;9.27;5.33;;;11.10;99.90;;;;;;5037257;28;20176;-80
2022/10/20 07:11:17;;;;;;;7.03;5.07;;;11.20;99.90;;;;;;5036993;28;20199;-80
2022/10/20 07:13:43;;;;;;;11.33;6.03;;;11.10;99.90;;;;;;5042257;28;20232;-80
2022/10/20 07:16:12;;;;;;;6.73;5.73;;;11.30;99.90;;;;;;5023258;28;20173;-80
2022/10/20 07:18:38;;;;;;;9.00;5.30;;;11.30;99.90;;;;;;5023322;28;20173;-80
2022/10/20 07:21:06;;;;;;;9.33;6.30;;;11.40;99.90;;;;;;5040855;28;20178;-80
2022/10/20 07:23:32;;;;;;;7.93;5.07;;;11.40;99.90;;;;;;5023688;28;20169;-80
2022/10/20 07:26:10;;;;;;;9.30;5.73;;;11.40;99.90;;;;;;5024000;28;20169;-80
2022/10/20 07:28:38;;;;;;;8.90;6.27;;;11.50;99.90;;;;;;5024010;28;20172;-81
2022/10/20 07:31:06;;;;;;;7.87;5.50;;;11.60;99.90;;;;;;5043712;28;20172;-80
2022/10/20 07:33:32;;;;;;;6.83;5.53;;;11.60;99.90;;;;;;5025390;28;20176;-80
2022/10/20 07:35:58;;;;;;;12.50;6.17;;;11.80;99.90;;;;;;5042815;28;20175;-80
2022/10/20 07:38:24;;;;;;;7.57;5.90;;;11.80;99.90;;;;;;5043003;28;20168;-80
2022/10/20 07:40:49;;;;;;;8.37;6.03;;;11.80;99.90;;;;;;5043076;28;20192;-81
2022/10/20 07:43:15;;;;;;;8.20;6.00;;;11.90;99.90;;;;;;5024670;28;20202;-80
2022/10/20 07:45:41;;;;;;;6.30;5.67;;;11.90;99.90;;;;;;5043595;28;20188;-81
2022/10/20 07:48:08;;;;;;;7.40;5.50;;;12.00;99.90;;;;;;5042604;28;20180;-81
2022/10/20 07:50:37;;;;;;;9.13;5.13;;;12.10;99.90;;;;;;5024840;28;20275;-81
2022/10/20 07:53:05;;;;;;;11.33;6.03;;;12.10;99.90;;;;;;5043012;28;20202;-81
2022/10/20 07:55:31;;;;;;;8.03;5.53;;;12.20;99.90;;;;;;5026137;28;20208;-80
2022/10/20 07:57:56;;;;;;;7.87;5.40;;;12.20;99.90;;;;;;5043424;28;20176;-81
2022/10/20 08:00:22;;;;;;;8.20;6.00;;;12.30;99.90;;;;;;5024382;28;20180;-81
2022/10/20 08:02:47;;;;;;;9.17;5.37;;;12.30;99.90;;;;;;5042282;28;20199;-81
2022/10/20 08:05:13;;;;;;;8.97;5.27;;;12.30;99.90;;;;;;5042497;28;20183;-80
2022/10/20 08:07:39;;;;;;;6.43;5.27;;;12.40;99.90;;;;;;5024576;28;20180;-81
2022/10/20 08:10:05;;;;;;;8.90;5.83;;;12.40;99.90;;;;;;5041323;28;20334;-80
2022/10/20 08:12:31;;;;;;;7.40;5.50;;;12.50;99.90;;;;;;5024305;28;20740;-80
2022/10/20 08:14:56;;;;;;;6.00;4.90;;;12.50;99.90;;;;;;5042880;28;20196;-80
2022/10/20 08:17:23;;;;;;;9.70;5.60;;;12.50;99.90;;;;;;5023658;28;20657;-81
2022/10/20 08:19:48;;;;;;;7.40;5.50;;;12.50;99.90;;;;;;5040722;28;20180;-80
2022/10/20 08:22:15;;;;;;;6.17;5.37;;;12.60;99.90;;;;;;5040796;28;20200;-80
2022/10/20 08:24:40;;;;;;;11.50;6.07;;;12.70;99.90;;;;;;5022244;28;20180;-81
2022/10/20 08:27:06;;;;;;;9.20;5.33;;;12.70;99.90;;;;;;5022116;28;20191;-80
2022/10/20 08:29:32;;;;;;;7.40;5.57;;;12.70;99.90;;;;;;5041316;28;20184;-81
2022/10/20 08:31:57;;;;;;;10.73;6.07;;;12.80;99.90;;;;;;5025816;28;20210;-81
2022/10/20 08:34:26;;;;;;;9.17;5.83;;;12.80;99.90;;;;;;5043686;28;20682;-80
2022/10/20 08:36:51;;;;;;;9.97;6.03;;;12.90;99.90;;;;;;5042698;28;20192;-81
2022/10/20 08:39:17;;;;;;;8.27;5.93;;;13.00;99.90;;;;;;5047238;28;20195;-81
2022/10/20 08:41:46;;;;;;;10.60;5.03;;;12.90;99.90;;;;;;5025738;28;20261;-80
2022/10/20 08:44:22;;;;;;;7.93;5.67;;;13.00;99.90;;;;;;5024586;28;20646;-80
2022/10/20 08:46:47;;;;;;;8.17;5.70;;;13.10;99.90;;;;;;5024889;28;20172;-81
2022/10/20 08:49:26;;;;;;;8.33;5.60;;;13.10;99.90;;;;;;5023693;28;20195;-81
2022/10/20 08:51:52;;;;;;;9.97;5.20;;;13.10;99.90;;;;;;5040272;28;20212;-80
2022/10/20 08:54:18;;;;;;;11.50;5.60;;;13.20;99.90;;;;;;5039921;28;20188;-80
2022/10/20 08:56:44;;;;;;;6.83;5.10;;;13.30;99.90;;;;;;5044498;28;20176;-81
2022/10/20 08:59:25;;;;;;;8.23;5.67;;;13.30;99.90;;;;;;5042770;28;20179;-80
2022/10/20 09:01:51;;;;;;;9.57;5.13;;;13.30;99.90;;;;;;5024127;28;20203;-80
2022/10/20 09:04:33;;;;;;;6.33;5.30;;;13.40;99.90;;;;;;5043216;28;20211;-80
2022/10/20 09:07:09;;;;;;;9.33;5.23;;;13.40;99.90;;;;;;5039882;28;20230;-80
2022/10/20 09:09:35;;;;;;;6.60;5.13;;;13.40;99.90;;;;;;5037663;28;20299;-80
2022/10/20 09:12:06;;;;;;;5.90;5.20;;;13.50;99.90;;;;;;5019103;28;20196;-80
2022/10/20 09:14:35;;;;;;;12.43;5.80;;;13.50;99.90;;;;;;5037307;28;20192;-80
2022/10/20 09:17:01;;;;;;;7.40;5.10;;;13.60;99.90;;;;;;5037052;28;20180;-80
2022/10/20 09:19:27;;;;;;;5.90;5.13;;;13.60;99.90;;;;;;5037445;28;20176;-80
2022/10/20 09:22:03;;;;;;;8.77;5.37;;;13.60;99.90;;;;;;5036924;28;20678;-80
2022/10/20 09:24:30;;;;;;;9.13;5.53;;;13.60;99.90;;;;;;5037650;28;20156;-81
2022/10/20 09:27:14;;;;;;;8.03;5.13;;;13.70;99.90;;;;;;5017831;28;20188;-81
2022/10/20 09:29:40;;;;;;;9.23;4.93;;;13.70;99.90;;;;;;5037600;28;20169;-80
2022/10/20 09:32:31;;;;;;;8.33;5.37;;;13.70;99.90;;;;;;5037292;28;20249;-81
2022/10/20 09:35:17;;;;;;;9.13;5.50;;;13.70;99.90;;;;;;5004680;28;20265;-81
2022/10/20 09:37:52;;;;;;;17.10;5.50;;;13.70;99.90;;;;;;5037964;28;20168;-81
2022/10/20 09:40:18;;;;;;;7.03;5.43;;;13.70;99.90;;;;;;5037636;28;20657;-81
2022/10/20 09:42:53;;;;;;;6.13;5.23;;;13.80;99.90;;;;;;5036863;28;20184;-81
2022/10/20 09:45:21;;;;;;;8.90;5.40;;;13.80;99.90;;;;;;5017696;28;20188;-80
2022/10/20 09:48:13;;;;;;;6.20;5.10;;;13.80;99.90;;;;;;5037398;28;20642;-81
2022/10/20 09:50:39;;;;;;;10.10;5.13;;;13.80;99.90;;;;;;5019415;28;20211;-81
2022/10/20 09:53:16;;;;;;;6.27;5.00;;;13.80;99.90;;;;;;5037197;28;20202;-81
2022/10/20 09:55:46;;;;;;;9.23;5.50;;;13.80;99.90;;;;;;5016041;28;20201;-81
2022/10/20 09:58:20;;;;;;;8.17;5.30;;;13.80;99.90;;;;;;4999207;28;20176;-81
2022/10/20 10:01:02;;;;;;;7.63;5.43;;;13.80;99.90;;;;;;5017269;28;20673;-80
2022/10/20 10:03:28;;;;;;;11.37;5.20;;;13.80;99.90;;;;;;5016526;28;20185;-81
2022/10/20 10:05:58;;;;;;;7.90;5.10;;;13.80;99.90;;;;;;5019320;28;20188;-80
2022/10/20 10:08:28;;;;;;;11.00;5.20;;;13.80;99.90;;;;;;5037275;28;20175;-81
2022/10/20 10:10:59;;;;;;;8.20;5.27;;;13.80;99.90;;;;;;5036349;28;20649;-81
2022/10/20 10:13:28;;;;;;;6.33;4.80;;;13.80;99.90;;;;;;5036561;28;20192;-80
2022/10/20 10:16:08;;;;;;;8.93;5.30;;;13.90;99.90;;;;;;5035640;28;20236;-80
2022/10/20 10:18:36;;;;;;;7.93;5.30;;;13.90;99.90;;;;;;5036436;28;20176;-80
2022/10/20 10:21:10;;;;;;;7.47;5.27;;;13.90;99.90;;;;;;5036587;28;20168;-81
2022/10/20 10:23:50;;;;;;;8.20;5.17;;;14.00;99.90;;;;;;5016635;28;20202;-81
2022/10/20 10:26:44;;;;;;;8.27;4.83;;;14.10;99.90;;;;;;5031667;28;20180;-81
2022/10/20 10:29:23;;;;;;;11.00;5.20;;;14.00;99.90;;;;;;5036061;28;20248;-80
2022/10/20 10:31:57;;;;;;;9.50;5.67;;;14.10;99.90;;;;;;5036549;28;20188;-80
2022/10/20 10:34:38;;;;;;;7.57;4.90;;;14.00;99.90;;;;;;5013598;28;20207;-80
2022/10/20 10:37:04;;;;;;;7.83;5.77;;;14.10;99.90;;;;;;5031354;28;20196;-79
2022/10/20 10:39:34;;;;;;;11.77;6.10;;;14.10;99.90;;;;;;5036229;28;20721;-80
2022/10/20 10:42:26;;;;;;;7.27;4.97;;;14.00;99.90;;;;;;5039449;28;20208;-80
2022/10/20 10:44:57;;;;;;;7.23;5.70;;;14.10;99.90;;;;;;4991567;28;20215;-80
2022/10/20 10:47:37;;;;;;;9.93;6.20;;;14.10;99.90;;;;;;5022195;28;20172;-80
2022/10/20 10:50:23;;;;;;;11.57;5.77;;;14.10;99.90;;;;;;5040469;28;20172;-80
2022/10/20 10:53:08;;;;;;;11.23;6.07;;;14.10;99.90;;;;;;5041096;28;20200;-80
2022/10/20 10:56:22;;;;;;;8.17;5.47;;;14.10;99.90;;;;;;5038800;28;20227;-80
2022/10/20 10:59:08;;;;;;;8.00;5.67;;;14.20;99.90;;;;;;5021944;28;20168;-80
2022/10/20 11:01:53;;;;;;;7.80;5.50;;;14.20;99.90;;;;;;5040900;28;20184;-81
2022/10/20 11:04:40;;;;;;;6.47;5.37;;;14.20;99.90;;;;;;5039131;28;20176;-81
2022/10/20 11:07:28;;;;;;;8.43;5.37;;;14.30;99.90;;;;;;5015286;28;20226;-80
2022/10/20 11:10:13;;;;;;;7.20;5.87;;;14.30;99.90;;;;;;5040046;28;20176;-80
2022/10/20 11:12:42;;;;;;;11.40;5.17;;;14.20;99.90;;;;;;5039865;28;20204;-81
2022/10/20 11:15:22;;;;;;;12.77;5.47;;;14.20;99.90;;;;;;5021414;28;20231;-80
2022/10/20 11:17:53;;;;;;;8.33;5.27;;;14.20;99.90;;;;;;5021419;28;20270;-81
2022/10/20 11:20:43;;;;;;;11.30;5.80;;;14.20;99.90;;;;;;5039636;28;20236;-81
2022/10/20 11:23:30;;;;;;;8.93;5.13;;;14.20;99.90;;;;;;5039425;28;20274;-81
2022/10/20 11:26:16;;;;;;;7.20;5.27;;;14.20;99.90;;;;;;5019595;28;20173;-81
2022/10/20 11:28:45;;;;;;;9.00;5.93;;;14.20;99.90;;;;;;5020302;28;20165;-81
2022/10/20 11:31:21;;;;;;;10.27;6.20;;;14.20;99.90;;;;;;5020714;28;20176;-80
2022/10/20 11:33:55;;;;;;;11.73;5.40;;;14.10;99.90;;;;;;5035926;28;20226;-80
2022/10/20 11:36:24;;;;;;;6.57;5.10;;;14.20;99.90;;;;;;5020454;28;20248;-80
2022/10/20 11:38:51;;;;;;;12.87;5.93;;;14.10;99.90;;;;;;5039370;28;20177;-80
2022/10/20 11:41:42;;;;;;;8.90;6.37;;;14.10;99.90;;;;;;5020176;28;20218;-80
2022/10/20 11:44:39;;;;;;;13.17;6.33;;;14.10;99.90;;;;;;5019458;28;20267;-80
2022/10/20 11:47:10;;;;;;;8.57;5.90;;;14.10;99.90;;;;;;5038313;28;20527;-80
2022/10/20 11:49:39;;;;;;;9.67;6.90;;;14.00;99.90;;;;;;5020443;28;20549;-80
2022/10/20 11:52:26;;;;;;;13.13;7.07;;;14.00;99.90;;;;;;5020595;28;20199;-81
2022/10/20 11:55:16;;;;;;;10.20;6.93;;;14.00;99.90;;;;;;5036480;28;20199;-80
2022/10/20 11:58:07;;;;;;;10.93;7.13;;;13.90;99.90;;;;;;5037782;28;20657;-80
2022/10/20 12:01:00;;;;;;;10.20;7.73;;;13.90;99.90;;;;;;5038432;28;20634;-80
2022/10/20 12:03:43;;;;;;;10.60;7.60;;;13.80;99.90;;;;;;5018791;28;20196;-80
2022/10/20 12:06:44;;;;;;;8.20;6.57;;;13.80;99.90;;;;;;4998789;28;20154;-80
2022/10/20 12:09:43;;;;;;;11.57;7.90;;;13.80;99.90;;;;;;4998511;28;20288;-81
2022/10/20 12:12:33;;;;;;;13.27;8.27;;;13.80;99.90;;;;;;4998412;28;20248;-80
2022/10/20 12:15:00;;;;;;;12.73;7.93;;;13.70;99.90;;;;;;4992439;28;20201;-80
2022/10/20 12:17:37;;;;;;;10.27;8.10;;;13.70;99.90;;;;;;4999582;28;20183;-80
2022/10/20 12:20:21;;;;;;;13.07;8.33;;;13.70;99.90;;;;;;5017826;28;20180;-81
2022/10/20 12:23:00;;;;;;;16.90;9.30;;;13.70;99.90;;;;;;5000108;28;20606;-80
2022/10/20 12:25:26;;;;;;;12.03;8.17;;;13.70;99.90;;;;;;5015196;28;20203;-80
2022/10/20 12:28:19;;;;;;;13.23;9.40;;;13.60;99.90;;;;;;5038725;28;20279;-80
2022/10/20 12:30:59;;;;;;;11.03;8.73;;;13.60;99.90;;;;;;5037425;28;20571;-80
2022/10/20 12:33:33;;;;;;;17.13;8.63;;;13.60;99.90;;;;;;5036594;28;20192;-80
2022/10/20 12:36:12;;;;;;;15.57;9.30;;;13.70;99.90;;;;;;5035650;28;20203;-80
2022/10/20 12:38:39;;;;;;;12.47;8.93;;;13.60;99.90;;;;;;5019013;28;20171;-80
2022/10/20 12:41:08;;;;;;;12.17;8.57;;;13.60;99.90;;;;;;5020605;28;20290;-79
2022/10/20 12:43:53;;;;;;;10.70;9.03;;;13.70;99.90;;;;;;5035861;28;20173;-80
2022/10/20 12:46:24;;;;;;;12.97;9.37;;;13.70;99.90;;;;;;5037091;28;20195;-79
2022/10/20 12:48:56;;;;;;;15.73;8.80;;;13.70;99.90;;;;;;5039829;28;20242;-79
2022/10/20 12:51:46;;;;;;;15.70;9.87;;;13.80;99.90;;;;;;5021171;28;20168;-79
2022/10/20 12:54:19;;;;;;;13.70;9.37;;;13.80;99.90;;;;;;5019035;28;20246;-79
2022/10/20 12:56:45;;;;;;;15.97;10.43;;;13.90;99.90;;;;;;5019950;28;20160;-79
2022/10/20 12:59:26;;;;;;;14.43;10.40;;;14.00;99.90;;;;;;5037631;28;20165;-79
2022/10/20 13:02:07;;;;;;;14.27;9.80;;;14.00;99.90;;;;;;5036615;28;20204;-79
2022/10/20 13:04:51;;;;;;;14.07;9.77;;;14.00;99.90;;;;;;5021866;28;20273;-79
2022/10/20 13:07:45;;;;;;;13.43;9.77;;;14.20;99.90;;;;;;5000148;28;20181;-79
2022/10/20 13:10:26;;;;;;;11.53;9.87;;;14.10;99.90;;;;;;5012860;28;20185;-79